createdAt,value
2023-02-05T00:01:25.794Z,21.42
2023-02-05T00:03:52.848Z,17.70
2023-02-05T00:06:19.851Z,18.05
2023-02-05T00:08:47.073Z,19.30
2023-02-05T00:11:14.122Z,17.50
2023-02-05T00:13:42.211Z,18.88
2023-02-05T00:16:09.482Z,19.20
2023-02-05T00:18:41.769Z,20.40
2023-02-05T00:21:08.978Z,20.63
2023-02-05T00:23:36.619Z,18.35
2023-02-05T00:26:04.830Z,20.40
2023-02-05T00:28:33.116Z,21.85
2023-02-05T00:31:00.568Z,18.73
2023-02-05T00:33:27.836Z,20.80
2023-02-05T00:35:54.896Z,25.88
2023-02-05T00:38:21.937Z,23.20
2023-02-05T00:40:49.102Z,21.30
2023-02-05T00:43:16.148Z,22.38
2023-02-05T00:45:43.314Z,22.98
2023-02-05T00:48:10.372Z,20.98
2023-02-05T00:50:37.449Z,19.75
2023-02-05T00:53:04.713Z,22.90
2023-02-05T00:55:31.890Z,22.70
2023-02-05T00:57:59.112Z,21.55
2023-02-05T01:00:26.876Z,19.65
2023-02-05T01:02:54.282Z,20.63
2023-02-05T01:05:21.284Z,23.35
2023-02-05T01:07:48.337Z,20.10
2023-02-05T01:10:15.477Z,20.42
2023-02-05T01:12:42.568Z,19.27
2023-02-05T01:15:10.464Z,22.33
2023-02-05T01:17:37.500Z,22.58
2023-02-05T01:20:05.878Z,22.73
2023-02-05T01:22:33.197Z,22.23
2023-02-05T01:25:00.223Z,20.30
2023-02-05T01:27:27.296Z,21.23
2023-02-05T01:29:54.493Z,21.20
2023-02-05T01:32:21.707Z,23.02
2023-02-05T01:34:48.795Z,21.10
2023-02-05T01:37:15.839Z,19.40
2023-02-05T01:39:42.968Z,19.55
2023-02-05T01:42:21.176Z,21.65
2023-02-05T01:45:06.817Z,21.73
2023-02-05T01:47:33.844Z,20.20
2023-02-05T01:50:00.924Z,21.50
2023-02-05T01:52:28.013Z,20.80
2023-02-05T01:54:55.112Z,21.35
2023-02-05T01:57:25.299Z,22.75
2023-02-05T01:59:52.483Z,20.38
2023-02-05T02:02:19.604Z,26.48
2023-02-05T02:04:57.339Z,21.70
2023-02-05T02:07:25.325Z,22.25
2023-02-05T02:09:53.265Z,22.25
2023-02-05T02:12:23.523Z,20.67
2023-02-05T02:14:52.306Z,21.73
2023-02-05T02:17:20.110Z,19.40
2023-02-05T02:19:50.149Z,21.15
2023-02-05T02:22:30.339Z,20.10
2023-02-05T02:25:09.309Z,24.38
2023-02-05T02:27:40.543Z,22.42
2023-02-05T02:30:14.797Z,22.63
2023-02-05T02:32:41.845Z,23.30
2023-02-05T02:35:17.831Z,21.50
2023-02-05T02:37:53.354Z,20.08
2023-02-05T02:40:26.188Z,20.08
2023-02-05T02:42:57.903Z,15.23
2023-02-05T02:45:26.621Z,22.23
2023-02-05T02:47:56.475Z,23.50
2023-02-05T02:50:34.492Z,21.88
2023-02-05T02:53:24.837Z,24.40
2023-02-05T02:55:53.234Z,20.00
2023-02-05T02:58:28.330Z,20.40
2023-02-05T03:00:55.844Z,19.63
2023-02-05T03:03:25.224Z,19.25
2023-02-05T03:05:53.242Z,21.60
2023-02-05T03:08:23.039Z,20.25
2023-02-05T03:11:03.106Z,21.20
2023-02-05T03:13:30.513Z,20.63
2023-02-05T03:15:57.659Z,20.80
2023-02-05T03:18:25.168Z,23.45
2023-02-05T03:20:54.009Z,21.63
2023-02-05T03:23:21.038Z,20.17
2023-02-05T03:25:48.096Z,20.00
2023-02-05T03:28:15.344Z,19.83
2023-02-05T03:30:54.463Z,19.13
2023-02-05T03:33:33.399Z,18.98
2023-02-05T03:36:03.151Z,24.65
2023-02-05T03:38:39.843Z,24.38
2023-02-05T03:41:12.985Z,20.67
2023-02-05T03:43:50.740Z,21.83
2023-02-05T03:46:28.418Z,21.65
2023-02-05T03:49:15.043Z,21.27
2023-02-05T03:51:56.621Z,20.63
2023-02-05T03:54:30.061Z,21.70
2023-02-05T03:56:57.091Z,23.05
2023-02-05T03:59:25.206Z,20.15
2023-02-05T04:01:52.751Z,21.58
2023-02-05T04:04:20.261Z,20.67
2023-02-05T04:06:48.173Z,21.17
2023-02-05T04:09:15.194Z,22.65
2023-02-05T04:11:42.328Z,19.70
2023-02-05T04:14:09.371Z,24.77
2023-02-05T04:16:37.645Z,22.15
2023-02-05T04:19:04.740Z,22.60
2023-02-05T04:21:31.757Z,21.90
2023-02-05T04:23:58.763Z,24.13
2023-02-05T04:26:25.923Z,20.73
2023-02-05T04:28:52.959Z,20.77
2023-02-05T04:31:20.131Z,21.63
2023-02-05T04:33:47.146Z,21.42
2023-02-05T04:36:17.005Z,19.63
2023-02-05T04:38:44.139Z,19.88
2023-02-05T04:41:11.159Z,21.98
2023-02-05T04:43:38.200Z,20.67
2023-02-05T04:46:06.302Z,20.77
2023-02-05T04:48:33.445Z,21.60
2023-02-05T04:51:00.538Z,19.80
2023-02-05T04:53:27.564Z,24.38
2023-02-05T04:56:04.119Z,22.10
2023-02-05T04:58:31.116Z,20.15
2023-02-05T05:00:58.204Z,22.67
2023-02-05T05:03:25.385Z,20.55
2023-02-05T05:05:52.485Z,22.27
2023-02-05T05:08:19.494Z,20.52
2023-02-05T05:10:46.523Z,22.77
2023-02-05T05:13:13.496Z,23.70
2023-02-05T05:15:40.535Z,23.80
2023-02-05T05:18:07.535Z,19.48
2023-02-05T05:20:34.582Z,25.50
2023-02-05T05:23:01.733Z,22.38
2023-02-05T05:25:28.738Z,21.65
2023-02-05T05:27:55.785Z,20.58
2023-02-05T05:30:22.817Z,20.63
2023-02-05T05:32:49.848Z,19.83
2023-02-05T05:35:16.863Z,19.88
2023-02-05T05:37:43.852Z,25.33
2023-02-05T05:40:31.753Z,21.55
2023-02-05T05:43:17.619Z,20.73
2023-02-05T05:45:44.653Z,20.85
2023-02-05T05:48:11.718Z,18.42
2023-02-05T05:50:38.782Z,20.65
2023-02-05T05:53:05.791Z,18.75
2023-02-05T05:55:33.194Z,20.33
2023-02-05T05:58:00.412Z,22.08
2023-02-05T06:00:27.467Z,22.08
2023-02-05T06:02:54.495Z,21.33
2023-02-05T06:05:21.612Z,21.52
2023-02-05T06:07:48.641Z,20.40
2023-02-05T06:10:15.773Z,20.15
2023-02-05T06:12:42.853Z,22.05
2023-02-05T06:15:10.104Z,23.42
2023-02-05T06:17:37.125Z,19.98
2023-02-05T06:20:04.775Z,19.83
2023-02-05T06:22:31.824Z,20.33
2023-02-05T06:24:58.841Z,18.75
2023-02-05T06:27:25.857Z,19.55
2023-02-05T06:29:52.907Z,19.23
2023-02-05T06:32:21.419Z,19.90
2023-02-05T06:34:48.467Z,22.30
2023-02-05T06:37:15.665Z,20.17
2023-02-05T06:39:43.753Z,21.55
2023-02-05T06:42:10.828Z,20.38
2023-02-05T06:44:37.857Z,23.25
2023-02-05T06:47:04.897Z,18.98
2023-02-05T06:49:32.096Z,18.55
2023-02-05T06:51:59.136Z,20.80
2023-02-05T06:54:26.265Z,19.50
2023-02-05T06:56:53.383Z,19.58
2023-02-05T06:59:20.416Z,22.35
2023-02-05T07:01:47.505Z,19.70
2023-02-05T07:04:14.661Z,22.25
2023-02-05T07:06:41.778Z,20.45
2023-02-05T07:09:08.817Z,23.00
2023-02-05T07:11:35.849Z,20.80
2023-02-05T07:14:03.317Z,22.23
2023-02-05T07:16:30.729Z,21.00
2023-02-05T07:19:00.721Z,21.83
2023-02-05T07:21:27.783Z,21.25
2023-02-05T07:23:54.806Z,22.13
2023-02-05T07:26:21.882Z,21.15
2023-02-05T07:28:48.891Z,20.27
2023-02-05T07:31:17.182Z,20.60
2023-02-05T07:33:44.829Z,17.70
2023-02-05T07:36:13.723Z,19.40
2023-02-05T07:38:40.808Z,20.77
2023-02-05T07:41:08.399Z,17.30
2023-02-05T07:43:35.768Z,17.42
2023-02-05T07:46:04.355Z,18.08
2023-02-05T07:48:31.764Z,14.73
2023-02-05T07:50:58.818Z,16.38
2023-02-05T07:53:26.044Z,15.45
2023-02-05T07:55:53.223Z,15.50
2023-02-05T07:58:20.493Z,14.35
2023-02-05T08:00:47.575Z,15.35
2023-02-05T08:03:14.977Z,15.57
2023-02-05T08:05:42.013Z,17.27
2023-02-05T08:08:09.054Z,16.52
2023-02-05T08:10:36.123Z,17.77
2023-02-05T08:13:03.212Z,15.77
2023-02-05T08:15:30.263Z,15.95
2023-02-05T08:17:57.289Z,13.82
2023-02-05T08:20:24.360Z,15.20
2023-02-05T08:22:51.372Z,15.65
2023-02-05T08:25:18.654Z,15.30
2023-02-05T08:27:46.181Z,13.93
2023-02-05T08:30:15.588Z,12.18
2023-02-05T08:32:42.725Z,12.98
2023-02-05T08:35:09.978Z,14.85
2023-02-05T08:37:36.980Z,14.13
2023-02-05T08:40:04.376Z,13.93
2023-02-05T08:42:31.442Z,13.07
2023-02-05T08:44:59.355Z,14.13
2023-02-05T08:47:26.444Z,17.30
2023-02-05T08:49:53.834Z,14.15
2023-02-05T08:52:20.977Z,15.43
2023-02-05T08:54:48.185Z,14.18
2023-02-05T08:57:16.513Z,18.33
2023-02-05T08:59:43.874Z,13.30
2023-02-05T09:02:14.461Z,13.88
2023-02-05T09:04:41.796Z,15.60
2023-02-05T09:07:09.000Z,14.32
2023-02-05T09:09:36.976Z,14.93
2023-02-05T09:12:04.322Z,13.98
2023-02-05T09:14:36.107Z,14.02
2023-02-05T09:17:03.913Z,13.75
2023-02-05T09:19:32.437Z,15.38
2023-02-05T09:21:59.568Z,13.95
2023-02-05T09:24:26.594Z,17.15
2023-02-05T09:26:53.627Z,13.60
2023-02-05T09:29:20.655Z,15.65
2023-02-05T09:31:47.860Z,17.90
2023-02-05T09:34:15.471Z,15.82
2023-02-05T09:36:42.678Z,16.77
2023-02-05T09:39:18.565Z,15.60
2023-02-05T09:42:00.547Z,20.48
2023-02-05T09:44:44.501Z,14.98
2023-02-05T09:47:24.226Z,18.85
2023-02-05T09:49:57.085Z,18.48
2023-02-05T09:52:33.912Z,17.77
2023-02-05T09:55:02.565Z,19.58
2023-02-05T09:57:37.761Z,17.55
2023-02-05T10:00:28.041Z,16.77
2023-02-05T10:03:02.196Z,14.75
2023-02-05T10:05:33.454Z,18.70
2023-02-05T10:08:08.507Z,14.40
2023-02-05T10:10:40.566Z,12.90
2023-02-05T10:13:25.554Z,15.88
2023-02-05T10:16:04.984Z,12.77
2023-02-05T10:18:50.747Z,14.30
2023-02-05T10:21:23.095Z,15.57
2023-02-05T10:24:04.907Z,14.18
2023-02-05T10:26:41.312Z,16.85
2023-02-05T10:29:46.695Z,12.70
2023-02-05T10:32:24.194Z,15.30
2023-02-05T10:35:03.931Z,14.75
2023-02-05T10:37:35.202Z,15.48
2023-02-05T10:40:03.769Z,13.43
2023-02-05T10:42:40.290Z,14.77
2023-02-05T10:45:16.092Z,10.60
2023-02-05T10:48:00.709Z,11.60
2023-02-05T10:50:46.396Z,13.98
2023-02-05T10:53:14.708Z,9.80
2023-02-05T10:55:41.765Z,14.77
2023-02-05T10:58:28.794Z,11.57
2023-02-05T11:00:56.066Z,11.25
2023-02-05T11:03:23.259Z,14.88
2023-02-05T11:05:50.990Z,14.57
2023-02-05T11:08:36.650Z,12.45
2023-02-05T11:11:05.492Z,13.55
2023-02-05T11:13:32.944Z,12.00
2023-02-05T11:16:05.197Z,12.07
2023-02-05T11:18:46.248Z,12.40
2023-02-05T11:21:13.653Z,12.38
2023-02-05T11:23:54.299Z,14.10
2023-02-05T11:26:23.145Z,17.05
2023-02-05T11:28:50.419Z,15.00
2023-02-05T11:31:20.583Z,14.23
2023-02-05T11:33:48.476Z,9.52
2023-02-05T11:36:25.625Z,15.30
2023-02-05T11:38:54.279Z,13.05
2023-02-05T11:41:29.262Z,15.85
2023-02-05T11:43:56.669Z,12.98
2023-02-05T11:46:25.210Z,14.93
2023-02-05T11:48:52.265Z,14.45
2023-02-05T11:51:28.922Z,13.85
2023-02-05T11:53:58.086Z,17.08
2023-02-05T11:56:25.963Z,17.45
2023-02-05T11:59:03.039Z,12.63
2023-02-05T12:01:34.954Z,13.10
2023-02-05T12:04:15.389Z,15.77
2023-02-05T12:06:46.706Z,12.77
2023-02-05T12:09:18.082Z,14.60
2023-02-05T12:12:06.862Z,12.43
2023-02-05T12:14:45.052Z,16.60
2023-02-05T12:17:15.061Z,17.40
2023-02-05T12:19:56.201Z,17.42
2023-02-05T12:22:30.457Z,14.52
2023-02-05T12:25:09.750Z,14.77
2023-02-05T12:27:45.741Z,14.38
2023-02-05T12:30:33.095Z,17.05
2023-02-05T12:33:01.053Z,15.40
2023-02-05T12:35:28.133Z,17.65
2023-02-05T12:37:55.146Z,14.35
2023-02-05T12:40:41.066Z,17.83
2023-02-05T12:43:19.145Z,20.10
2023-02-05T12:45:53.845Z,14.73
2023-02-05T12:48:20.867Z,12.60
2023-02-05T12:50:47.842Z,13.85
2023-02-05T12:53:17.952Z,17.23
2023-02-05T12:55:51.959Z,15.48
2023-02-05T12:58:20.141Z,14.00
2023-02-05T13:01:00.502Z,16.40
2023-02-05T13:03:37.426Z,23.15
2023-02-05T13:06:33.509Z,20.88
2023-02-05T13:09:15.660Z,17.50
2023-02-05T13:11:51.132Z,16.73
2023-02-05T13:14:19.996Z,94.10
2023-02-05T13:16:59.823Z,18.85
2023-02-05T13:19:26.889Z,20.42
2023-02-05T13:22:14.689Z,16.42
2023-02-05T13:25:09.799Z,19.05
2023-02-05T13:28:01.256Z,24.35
2023-02-05T13:30:40.725Z,20.30
2023-02-05T13:33:08.301Z,13.52
2023-02-05T13:35:42.177Z,19.73
2023-02-05T13:40:37.824Z,25.35
2023-02-05T13:43:16.049Z,19.17
2023-02-05T13:45:53.706Z,20.60
2023-02-05T13:48:26.951Z,23.48
2023-02-05T13:51:08.493Z,20.55
2023-02-05T13:53:50.465Z,23.73
2023-02-05T13:56:24.326Z,17.08
2023-02-05T14:01:21.714Z,20.88
2023-02-05T14:04:15.199Z,22.77
2023-02-05T14:06:43.339Z,19.80
2023-02-05T14:09:10.377Z,20.10
2023-02-05T14:11:47.516Z,22.75
2023-02-05T14:14:25.886Z,23.40
2023-02-05T14:16:54.936Z,18.75
2023-02-05T14:19:25.815Z,23.38
2023-02-05T14:22:01.191Z,24.00
2023-02-05T14:24:28.201Z,19.42
2023-02-05T14:27:00.659Z,28.30
2023-02-05T14:29:43.292Z,27.48
2023-02-05T14:32:34.498Z,20.60
2023-02-05T14:35:02.527Z,21.40
2023-02-05T14:37:36.810Z,26.50
2023-02-05T14:40:21.984Z,20.60
2023-02-05T14:42:49.595Z,23.02
2023-02-05T14:45:17.417Z,23.05
2023-02-05T14:47:44.932Z,22.25
2023-02-05T14:50:18.706Z,17.73
2023-02-05T14:55:13.275Z,22.48
2023-02-05T14:57:52.371Z,40.92
2023-02-05T15:00:22.401Z,35.75
2023-02-05T15:03:01.925Z,71.30
2023-02-05T15:05:41.001Z,55.28
2023-02-05T15:08:19.610Z,35.03
2023-02-05T15:10:49.775Z,41.45
2023-02-05T15:13:20.476Z,39.58
2023-02-05T15:16:06.050Z,39.17
2023-02-05T15:18:33.948Z,38.30
2023-02-05T15:21:02.012Z,41.72
2023-02-05T15:23:35.395Z,26.17
2023-02-05T15:26:05.281Z,29.10
2023-02-05T15:28:34.615Z,46.17
2023-02-05T15:31:41.482Z,26.50
2023-02-05T15:34:22.110Z,51.63
2023-02-05T15:36:54.874Z,28.98
2023-02-05T15:39:24.243Z,28.25
2023-02-05T15:41:52.449Z,32.17
2023-02-05T15:44:20.969Z,31.27
2023-02-05T15:46:48.548Z,32.40
2023-02-05T15:49:15.853Z,26.10
2023-02-05T15:51:43.010Z,28.60
2023-02-05T15:54:15.150Z,25.60
2023-02-05T15:56:42.579Z,30.65
2023-02-05T15:59:16.477Z,24.02
2023-02-05T16:04:22.967Z,27.95
2023-02-05T16:06:50.185Z,34.33
2023-02-05T16:09:25.029Z,32.83
2023-02-05T16:11:52.365Z,29.92
2023-02-05T16:14:20.856Z,36.45
2023-02-05T16:17:07.009Z,29.42
2023-02-05T16:19:43.207Z,26.70
2023-02-05T16:22:24.965Z,26.63
2023-02-05T16:24:54.587Z,35.65
2023-02-05T16:27:25.021Z,24.33
2023-02-05T16:29:55.810Z,23.25
2023-02-05T16:32:52.398Z,28.30
2023-02-05T16:35:39.717Z,20.98
2023-02-05T16:38:09.162Z,24.50
2023-02-05T16:40:42.959Z,21.45
2023-02-05T16:43:22.107Z,33.25
2023-02-05T16:46:07.411Z,23.98
2023-02-05T16:48:36.819Z,22.63
2023-02-05T16:51:04.432Z,24.20
2023-02-05T16:53:33.103Z,19.48
2023-02-05T16:56:02.924Z,21.13
2023-02-05T16:58:36.647Z,27.63
2023-02-05T17:01:04.223Z,24.15
2023-02-05T17:03:41.339Z,25.23
2023-02-05T17:06:12.818Z,21.63
2023-02-05T17:08:40.703Z,26.70
2023-02-05T17:11:08.520Z,24.40
2023-02-05T17:13:43.099Z,23.58
2023-02-05T17:16:30.498Z,32.70
2023-02-05T17:19:05.143Z,28.15
2023-02-05T17:21:36.324Z,25.70
2023-02-05T17:24:06.834Z,22.30
2023-02-05T17:26:37.172Z,23.88
2023-02-05T17:29:05.980Z,30.95
2023-02-05T17:31:38.136Z,30.48
2023-02-05T17:34:05.568Z,28.50
2023-02-05T17:36:32.627Z,25.48
2023-02-05T17:38:59.789Z,29.02
2023-02-05T17:41:47.439Z,22.73
2023-02-05T17:44:15.707Z,24.08
2023-02-05T17:46:43.364Z,27.73
2023-02-05T17:49:10.499Z,27.50
2023-02-05T17:51:42.419Z,23.38
2023-02-05T17:54:16.672Z,29.95
2023-02-05T17:56:44.695Z,29.95
2023-02-05T17:59:16.625Z,33.00
2023-02-05T18:01:43.648Z,29.02
2023-02-05T18:04:11.882Z,30.10
2023-02-05T18:06:39.542Z,30.70
2023-02-05T18:09:06.847Z,35.08
2023-02-05T18:11:34.190Z,28.58
2023-02-05T18:14:01.400Z,29.33
2023-02-05T18:16:28.618Z,30.73
2023-02-05T18:18:55.658Z,27.92
2023-02-05T18:21:22.903Z,30.88
2023-02-05T18:23:50.421Z,33.90
2023-02-05T18:26:17.446Z,28.83
2023-02-05T18:28:45.220Z,28.42
2023-02-05T18:31:12.356Z,36.30
2023-02-05T18:33:39.570Z,31.40
2023-02-05T18:36:11.572Z,32.60
2023-02-05T18:38:39.121Z,30.27
2023-02-05T18:41:13.289Z,32.45
2023-02-05T18:43:40.403Z,28.83
2023-02-05T18:46:12.431Z,30.60
2023-02-05T18:48:42.354Z,34.47
2023-02-05T18:51:10.398Z,28.60
2023-02-05T18:53:39.084Z,30.42
2023-02-05T18:56:13.807Z,36.60
2023-02-05T18:58:41.433Z,33.38
2023-02-05T19:01:12.776Z,32.88
2023-02-05T19:03:41.298Z,32.95
2023-02-05T19:06:09.283Z,29.92
2023-02-05T19:08:36.348Z,31.08
2023-02-05T19:11:14.224Z,29.42
2023-02-05T19:13:41.953Z,33.55
2023-02-05T19:16:12.619Z,27.02
2023-02-05T19:18:40.594Z,32.10
2023-02-05T19:21:08.374Z,27.50
2023-02-05T19:23:35.811Z,34.08
2023-02-05T19:26:06.988Z,30.88
2023-02-05T19:28:34.190Z,30.05
2023-02-05T19:31:08.861Z,25.75
2023-02-05T19:33:36.566Z,32.15
2023-02-05T19:36:04.724Z,37.60
2023-02-05T19:38:31.804Z,31.73
2023-02-05T19:41:05.332Z,29.52
2023-02-05T19:43:32.474Z,31.90
2023-02-05T19:46:03.460Z,30.45
2023-02-05T19:48:30.574Z,34.97
2023-02-05T19:50:57.654Z,32.83
2023-02-05T19:53:24.933Z,30.20
2023-02-05T19:55:52.137Z,30.48
2023-02-05T19:58:19.217Z,31.63
2023-02-05T20:00:46.257Z,34.10
2023-02-05T20:03:13.295Z,28.48
2023-02-05T20:05:40.318Z,28.83
2023-02-05T20:08:07.401Z,27.33
2023-02-05T20:10:34.687Z,32.65
2023-02-05T20:13:02.230Z,32.22
2023-02-05T20:15:29.235Z,31.73
2023-02-05T20:17:58.443Z,33.90
2023-02-05T20:20:44.953Z,31.30
2023-02-05T20:23:12.214Z,35.60
2023-02-05T20:25:39.288Z,33.78
2023-02-05T20:28:06.419Z,34.00
2023-02-05T20:30:52.549Z,34.72
2023-02-05T20:33:19.865Z,31.45
2023-02-05T20:35:47.016Z,30.17
2023-02-05T20:38:14.037Z,27.52
2023-02-05T20:40:41.124Z,26.98
2023-02-05T20:43:09.123Z,28.05
2023-02-05T20:45:36.173Z,26.77
2023-02-05T20:48:03.172Z,25.48
2023-02-05T20:50:30.164Z,25.40
2023-02-05T20:52:57.493Z,29.92
2023-02-05T20:55:24.496Z,26.55
2023-02-05T20:57:51.531Z,26.02
2023-02-05T21:00:20.927Z,29.02
2023-02-05T21:02:47.949Z,26.88
2023-02-05T21:05:15.060Z,30.65
2023-02-05T21:07:42.087Z,27.95
2023-02-05T21:10:10.747Z,28.65
2023-02-05T21:12:37.964Z,29.27
2023-02-05T21:15:05.162Z,24.95
2023-02-05T21:17:32.397Z,24.02
2023-02-05T21:19:59.468Z,24.52
2023-02-05T21:22:26.507Z,19.65
2023-02-05T21:24:53.533Z,19.80
2023-02-05T21:27:23.019Z,20.48
2023-02-05T21:29:50.940Z,21.50
2023-02-05T21:32:18.082Z,21.73
2023-02-05T21:34:45.140Z,20.52
2023-02-05T21:37:12.197Z,20.98
2023-02-05T21:39:40.902Z,22.95
2023-02-05T21:42:07.982Z,19.17
2023-02-05T21:44:35.054Z,21.30
2023-02-05T21:47:02.091Z,24.27
2023-02-05T21:49:29.094Z,21.67
2023-02-05T21:51:56.150Z,24.67
2023-02-05T21:54:25.680Z,22.02
2023-02-05T21:56:52.995Z,22.98
2023-02-05T21:59:20.014Z,25.00
2023-02-05T22:01:47.132Z,21.73
2023-02-05T22:04:16.087Z,24.15
2023-02-05T22:06:43.500Z,23.83
2023-02-05T22:09:11.855Z,22.90
2023-02-05T22:11:39.372Z,20.55
2023-02-05T22:14:06.616Z,23.50
2023-02-05T22:16:34.568Z,22.85
2023-02-05T22:19:02.000Z,22.38
2023-02-05T22:21:32.873Z,22.38
2023-02-05T22:24:00.686Z,24.65
2023-02-05T22:26:32.066Z,21.48
2023-02-05T22:29:00.044Z,21.45
2023-02-05T22:31:27.562Z,21.95
2023-02-05T22:33:54.662Z,22.30
2023-02-05T22:36:23.140Z,20.27
2023-02-05T22:38:51.012Z,23.65
2023-02-05T22:41:19.555Z,20.88
2023-02-05T22:43:46.723Z,20.38
2023-02-05T22:46:15.992Z,20.65
2023-02-05T22:48:45.983Z,20.38
2023-02-05T22:51:14.666Z,19.23
2023-02-05T22:53:42.005Z,19.90
2023-02-05T22:56:11.033Z,19.50
2023-02-05T22:58:38.996Z,18.65
2023-02-05T23:01:09.164Z,18.98
2023-02-05T23:03:36.458Z,21.33
2023-02-05T23:06:08.792Z,23.38
2023-02-05T23:08:35.809Z,19.20
2023-02-05T23:11:07.158Z,17.70
2023-02-05T23:13:34.528Z,18.33
2023-02-05T23:16:12.547Z,18.02
2023-02-05T23:18:40.162Z,18.00
2023-02-05T23:21:08.022Z,17.80
2023-02-05T23:23:35.150Z,23.65
2023-02-05T23:26:09.315Z,18.35
2023-02-05T23:28:36.694Z,17.55
2023-02-05T23:31:04.165Z,20.67
2023-02-05T23:33:31.601Z,18.27
2023-02-05T23:35:58.713Z,19.75
2023-02-05T23:38:25.774Z,18.25
2023-02-05T23:40:53.298Z,19.33
2023-02-05T23:43:21.480Z,21.55
2023-02-05T23:45:49.070Z,19.63
2023-02-05T23:48:16.148Z,16.48
2023-02-05T23:50:43.710Z,17.35
2023-02-05T23:53:11.450Z,17.95
2023-02-05T23:55:39.214Z,18.02
2023-02-05T23:58:06.510Z,17.92
